Time;durP1;ratioP1;P1;durP2;ratioP2;P2;SDS_P1;SDS_P2;PMS_P1;PMS_P2;Temp;Humidity;BMP_temperature;BMP_pressure;BME280_temperature;BME280_humidity;BME280_pressure;Samples;Min_cycle;Max_cycle;Signal;HPM_P1;HPM_P2
2023/03/10 00:00:03;;;;;;;10.37;9.10;;;;;;;;;;5058216;28;20207;-70
2023/03/10 00:02:29;;;;;;;11.80;10.03;;;;;;;;;;5055525;28;20460;-70
2023/03/10 00:04:54;;;;;;;10.60;9.53;;;;;;;;;;5057982;28;20438;-70
2023/03/10 00:07:20;;;;;;;9.47;8.53;;;;;;;;;;5056421;28;20412;-69
2023/03/10 00:09:45;;;;;;;9.87;8.87;;;;;;;;;;5057056;28;20178;-70
2023/03/10 00:12:11;;;;;;;9.70;8.70;;;;;;;;;;5056202;28;20175;-70
2023/03/10 00:14:36;;;;;;;10.43;9.33;;;;;;;;;;5045253;28;20183;-70
2023/03/10 00:17:01;;;;;;;10.13;9.13;;;;;;;;;;5057747;28;20260;-70
2023/03/10 00:19:27;;;;;;;11.10;9.60;;;;;;;;;;5056189;28;20548;-70
2023/03/10 00:21:52;;;;;;;11.00;9.90;;;;;;;;;;5054849;28;20171;-70
2023/03/10 00:24:17;;;;;;;9.70;8.70;;;;;;;;;;5058118;28;20172;-70
2023/03/10 00:26:44;;;;;;;10.17;9.10;;;;;;;;;;5059242;28;20199;-70
2023/03/10 00:29:10;;;;;;;9.97;8.97;;;;;;;;;;5049335;28;20199;-70
2023/03/10 00:31:35;;;;;;;11.03;9.90;;;;;;;;;;5054371;28;20426;-70
2023/03/10 00:34:00;;;;;;;10.40;9.30;;;;;;;;;;5053990;28;20183;-70
2023/03/10 00:36:27;;;;;;;11.50;10.20;;;;;;;;;;5051478;28;20208;-70
2023/03/10 00:38:53;;;;;;;11.13;9.93;;;;;;;;;;5049067;28;20202;-70
2023/03/10 00:41:21;;;;;;;11.30;9.90;;;;;;;;;;5047966;28;20426;-70
2023/03/10 00:43:47;;;;;;;11.93;10.33;;;;;;;;;;5045677;28;20426;-70
2023/03/10 00:46:13;;;;;;;12.40;10.67;;;;;;;;;;5049004;28;20467;-70
2023/03/10 00:48:38;;;;;;;11.77;10.53;;;;;;;;;;5050528;28;20179;-70
2023/03/10 00:51:04;;;;;;;11.50;10.30;;;;;;;;;;5047837;28;20659;-70
2023/03/10 00:53:29;;;;;;;12.30;10.93;;;;;;;;;;5049273;28;20717;-70
2023/03/10 00:55:58;;;;;;;11.73;10.47;;;;;;;;;;5050579;28;20210;-70
2023/03/10 00:58:24;;;;;;;12.80;11.43;;;;;;;;;;5054101;28;20718;-70
2023/03/10 01:00:49;;;;;;;12.10;10.53;;;;;;;;;;5055437;28;20434;-70
2023/03/10 01:03:14;;;;;;;11.70;10.23;;;;;;;;;;5048940;28;20180;-70
2023/03/10 01:05:39;;;;;;;12.20;10.70;;;;;;;;;;5048725;28;20211;-70
2023/03/10 01:08:05;;;;;;;12.03;10.50;;;;;;;;;;5054106;28;20191;-70
2023/03/10 01:10:30;;;;;;;11.97;10.67;;;;;;;;;;5049538;28;20183;-70
2023/03/10 01:12:55;;;;;;;11.97;10.73;;;;;;;;;;5053783;28;20237;-71
2023/03/10 01:15:21;;;;;;;13.50;11.43;;;;;;;;;;5050036;28;20196;-70
2023/03/10 01:17:46;;;;;;;12.37;11.10;;;;;;;;;;5052755;28;20630;-70
2023/03/10 01:20:13;;;;;;;11.50;10.30;;;;;;;;;;5048728;28;20208;-70
2023/03/10 01:22:39;;;;;;;11.10;9.60;;;;;;;;;;5051631;28;20183;-71
2023/03/10 01:25:04;;;;;;;11.80;10.23;;;;;;;;;;5050563;28;20442;-70
2023/03/10 01:27:30;;;;;;;11.33;10.13;;;;;;;;;;5049293;28;20188;-70
2023/03/10 01:29:55;;;;;;;11.63;9.80;;;;;;;;;;5046726;28;20278;-70
2023/03/10 01:32:20;;;;;;;11.37;10.17;;;;;;;;;;5050365;28;20532;-70
2023/03/10 01:34:46;;;;;;;12.10;10.47;;;;;;;;;;5052773;28;20203;-70
2023/03/10 01:37:11;;;;;;;13.57;11.33;;;;;;;;;;5042794;28;20900;-70
2023/03/10 01:39:36;;;;;;;11.93;10.67;;;;;;;;;;5045812;28;20246;-70
2023/03/10 01:42:02;;;;;;;12.60;10.87;;;;;;;;;;5056388;28;20233;-70
2023/03/10 01:44:27;;;;;;;11.47;10.27;;;;;;;;;;5057011;28;20167;-70
2023/03/10 01:46:53;;;;;;;12.93;11.40;;;;;;;;;;5052925;28;20581;-70
2023/03/10 01:49:18;;;;;;;12.40;11.10;;;;;;;;;;5056010;28;20178;-70
2023/03/10 01:51:45;;;;;;;14.20;11.33;;;;;;;;;;5058077;28;20409;-70
2023/03/10 01:54:13;;;;;;;12.83;11.50;;;;;;;;;;5053985;28;20175;-71
2023/03/10 01:56:39;;;;;;;11.93;10.60;;;;;;;;;;5055375;28;20446;-70
2023/03/10 01:59:04;;;;;;;13.17;11.50;;;;;;;;;;5055799;28;20526;-70
2023/03/10 02:01:30;;;;;;;15.10;13.40;;;;;;;;;;5055251;28;20653;-70
2023/03/10 02:03:59;;;;;;;12.47;11.10;;;;;;;;;;5058149;28;20187;-70
2023/03/10 02:06:24;;;;;;;13.87;12.37;;;;;;;;;;5056328;28;20434;-70
2023/03/10 02:08:52;;;;;;;14.30;12.80;;;;;;;;;;5056637;28;20417;-70
2023/03/10 02:11:18;;;;;;;16.13;14.40;;;;;;;;;;5056405;28;20199;-70
2023/03/10 02:13:43;;;;;;;16.20;14.50;;;;;;;;;;5058324;28;20418;-70
2023/03/10 02:16:09;;;;;;;16.20;13.47;;;;;;;;;;5058728;28;20450;-70
2023/03/10 02:18:34;;;;;;;16.60;13.90;;;;;;;;;;5053215;28;20210;-70
2023/03/10 02:21:06;;;;;;;17.40;15.43;;;;;;;;;;5060935;28;20172;-70
2023/03/10 02:23:45;;;;;;;16.30;13.73;;;;;;;;;;5059100;28;20672;-70
2023/03/10 02:26:16;;;;;;;14.40;12.90;;;;;;;;;;5060500;28;20587;-70
2023/03/10 02:28:42;;;;;;;13.77;12.37;;;;;;;;;;5061237;28;20410;-70
2023/03/10 02:31:08;;;;;;;15.30;13.60;;;;;;;;;;5057450;28;20516;-70
2023/03/10 02:33:34;;;;;;;14.43;12.93;;;;;;;;;;5053524;28;20520;-70
2023/03/10 02:36:04;;;;;;;15.70;14.00;;;;;;;;;;5051216;28;20460;-70
2023/03/10 02:38:29;;;;;;;15.77;14.07;;;;;;;;;;5052835;28;20499;-70
2023/03/10 02:40:56;;;;;;;14.93;13.30;;;;;;;;;;5056400;28;20916;-70
2023/03/10 02:43:23;;;;;;;15.03;13.30;;;;;;;;;;5055421;28;20262;-70
2023/03/10 02:45:50;;;;;;;12.47;11.17;;;;;;;;;;5053303;28;20485;-70
2023/03/10 02:48:21;;;;;;;14.80;12.40;;;;;;;;;;5053339;28;20433;-70
2023/03/10 02:50:47;;;;;;;14.57;12.40;;;;;;;;;;5053470;28;20442;-70
2023/03/10 02:53:19;;;;;;;13.97;12.43;;;;;;;;;;5051330;28;20441;-70
2023/03/10 02:55:44;;;;;;;14.70;13.13;;;;;;;;;;5052353;28;20686;-70
2023/03/10 02:58:10;;;;;;;13.87;12.47;;;;;;;;;;5054423;28;20431;-70
2023/03/10 03:00:37;;;;;;;13.70;11.60;;;;;;;;;;5054242;28;20222;-70
2023/03/10 03:03:02;;;;;;;13.90;12.37;;;;;;;;;;5054221;28;20190;-70
2023/03/10 03:05:28;;;;;;;14.90;12.50;;;;;;;;;;5055461;28;20442;-70
2023/03/10 03:07:53;;;;;;;15.80;12.90;;;;;;;;;;5048827;28;20175;-70
2023/03/10 03:10:18;;;;;;;13.97;12.47;;;;;;;;;;5048323;28;20749;-70
2023/03/10 03:12:44;;;;;;;13.63;12.23;;;;;;;;;;5050772;28;20241;-70
2023/03/10 03:15:09;;;;;;;17.20;13.53;;;;;;;;;;5057260;28;20795;-70
2023/03/10 03:17:34;;;;;;;15.30;12.93;;;;;;;;;;5054492;28;20180;-70
2023/03/10 03:20:00;;;;;;;13.63;12.33;;;;;;;;;;5053150;28;20353;-70
2023/03/10 03:22:25;;;;;;;14.00;12.60;;;;;;;;;;5053729;28;20181;-70
2023/03/10 03:24:50;;;;;;;15.37;13.70;;;;;;;;;;5051772;28;20302;-70
2023/03/10 03:27:15;;;;;;;17.07;14.33;;;;;;;;;;5053474;28;20184;-70
2023/03/10 03:29:41;;;;;;;17.60;14.30;;;;;;;;;;5054821;28;20179;-70
2023/03/10 03:32:06;;;;;;;17.03;15.23;;;;;;;;;;5049908;28;20626;-70
2023/03/10 03:34:31;;;;;;;17.23;15.43;;;;;;;;;;5046678;28;20647;-70
2023/03/10 03:36:57;;;;;;;18.93;15.43;;;;;;;;;;5043713;28;20531;-70
2023/03/10 03:39:22;;;;;;;20.00;17.13;;;;;;;;;;5047480;28;20211;-69
2023/03/10 03:41:48;;;;;;;19.53;16.83;;;;;;;;;;5052821;28;20180;-70
2023/03/10 03:44:13;;;;;;;21.27;18.23;;;;;;;;;;5053055;28;20180;-70
2023/03/10 03:46:38;;;;;;;22.93;19.23;;;;;;;;;;5046436;28;20977;-70
2023/03/10 03:49:03;;;;;;;23.50;19.83;;;;;;;;;;5049492;28;20263;-70
2023/03/10 03:51:29;;;;;;;23.70;19.40;;;;;;;;;;5052786;28;20661;-70
2023/03/10 03:53:54;;;;;;;25.63;21.33;;;;;;;;;;5051921;28;20282;-70
2023/03/10 03:56:19;;;;;;;29.23;21.50;;;;;;;;;;5049200;28;20555;-70
2023/03/10 03:58:44;;;;;;;27.60;23.00;;;;;;;;;;5049712;28;20207;-70
2023/03/10 04:01:11;;;;;;;24.73;21.03;;;;;;;;;;5058155;28;20642;-70
2023/03/10 04:03:36;;;;;;;28.20;23.07;;;;;;;;;;5059749;28;20172;-70
2023/03/10 04:06:02;;;;;;;30.00;23.57;;;;;;;;;;5054804;28;21107;-70
2023/03/10 04:08:27;;;;;;;38.60;27.67;;;;;;;;;;5057324;28;20178;-70
2023/03/10 04:10:53;;;;;;;33.33;26.80;;;;;;;;;;5055497;28;20202;-70
2023/03/10 04:13:18;;;;;;;31.50;25.70;;;;;;;;;;5053745;28;20559;-70
2023/03/10 04:15:43;;;;;;;32.43;26.50;;;;;;;;;;5058241;28;20203;-70
2023/03/10 04:18:09;;;;;;;32.63;24.90;;;;;;;;;;5052370;28;20188;-70
2023/03/10 04:20:35;;;;;;;33.83;25.90;;;;;;;;;;5060425;28;20171;-70
2023/03/10 04:23:00;;;;;;;29.43;24.83;;;;;;;;;;5052409;28;20172;-70
2023/03/10 04:25:26;;;;;;;30.60;24.50;;;;;;;;;;5059236;28;20191;-70
2023/03/10 04:27:51;;;;;;;31.67;24.40;;;;;;;;;;5050391;28;20521;-70
2023/03/10 04:30:16;;;;;;;27.63;23.10;;;;;;;;;;5052004;28;20183;-70
2023/03/10 04:32:42;;;;;;;27.10;21.90;;;;;;;;;;5050100;28;22099;-70
2023/03/10 04:35:07;;;;;;;26.40;22.20;;;;;;;;;;5053941;28;20196;-70
2023/03/10 04:37:33;;;;;;;24.53;21.10;;;;;;;;;;5054515;28;20176;-70
2023/03/10 04:39:59;;;;;;;25.37;21.40;;;;;;;;;;5046133;28;20226;-70
2023/03/10 04:42:26;;;;;;;23.43;19.77;;;;;;;;;;5044300;28;20228;-70
2023/03/10 04:44:51;;;;;;;23.90;18.60;;;;;;;;;;5051819;28;20440;-70
2023/03/10 04:47:16;;;;;;;23.53;19.20;;;;;;;;;;5050492;28;20430;-70
2023/03/10 04:49:42;;;;;;;21.97;18.40;;;;;;;;;;5049844;28;20210;-70
2023/03/10 04:52:07;;;;;;;20.83;17.70;;;;;;;;;;5050885;28;20180;-69
2023/03/10 04:54:32;;;;;;;18.50;16.50;;;;;;;;;;5054139;28;20313;-70
2023/03/10 04:56:57;;;;;;;18.87;15.57;;;;;;;;;;5055573;28;20253;-70
2023/03/10 04:59:23;;;;;;;18.03;15.60;;;;;;;;;;5048988;28;20202;-70
2023/03/10 05:01:50;;;;;;;18.30;14.63;;;;;;;;;;5050117;28;20187;-70
2023/03/10 05:04:16;;;;;;;17.53;15.10;;;;;;;;;;5052205;28;20176;-70
2023/03/10 05:06:41;;;;;;;15.37;13.07;;;;;;;;;;5048606;28;20442;-70
2023/03/10 05:09:06;;;;;;;15.80;13.63;;;;;;;;;;5052546;28;20548;-70
2023/03/10 05:11:31;;;;;;;16.40;13.57;;;;;;;;;;5049260;28;20207;-70
2023/03/10 05:13:57;;;;;;;16.80;13.10;;;;;;;;;;5054074;28;20198;-71
2023/03/10 05:16:22;;;;;;;16.10;12.77;;;;;;;;;;5052633;28;20227;-70
2023/03/10 05:18:47;;;;;;;14.93;12.73;;;;;;;;;;5049182;28;20206;-70
2023/03/10 05:21:13;;;;;;;16.77;12.97;;;;;;;;;;5049240;28;20183;-70
2023/03/10 05:23:38;;;;;;;16.07;13.30;;;;;;;;;;5047072;28;20184;-70
2023/03/10 05:26:04;;;;;;;15.00;12.30;;;;;;;;;;5051977;28;20690;-70
2023/03/10 05:28:30;;;;;;;14.43;12.20;;;;;;;;;;5040723;28;20183;-70
2023/03/10 05:30:55;;;;;;;16.43;13.87;;;;;;;;;;5044901;28;20686;-70
2023/03/10 05:33:20;;;;;;;15.63;13.47;;;;;;;;;;5051094;28;20179;-71
2023/03/10 05:35:45;;;;;;;12.50;11.20;;;;;;;;;;5050459;28;20720;-71
2023/03/10 05:38:11;;;;;;;13.50;12.10;;;;;;;;;;5048196;28;20180;-71
2023/03/10 05:40:36;;;;;;;14.03;12.53;;;;;;;;;;5051009;28;20199;-70
2023/03/10 05:43:01;;;;;;;14.17;12.40;;;;;;;;;;5049757;28;20669;-70
2023/03/10 05:45:27;;;;;;;17.03;12.33;;;;;;;;;;5049321;28;20238;-70
2023/03/10 05:47:52;;;;;;;16.00;12.40;;;;;;;;;;5050400;28;20274;-70
2023/03/10 05:50:18;;;;;;;14.30;12.70;;;;;;;;;;5046707;28;20766;-70
2023/03/10 05:52:43;;;;;;;13.63;12.13;;;;;;;;;;5043028;28;20183;-70
2023/03/10 05:55:13;;;;;;;15.50;12.80;;;;;;;;;;5047697;28;20204;-70
2023/03/10 05:57:38;;;;;;;15.33;12.77;;;;;;;;;;5045913;28;20569;-70
2023/03/10 06:00:04;;;;;;;14.77;12.10;;;;;;;;;;5053497;28;20468;-70
2023/03/10 06:02:30;;;;;;;15.20;12.70;;;;;;;;;;5054681;28;20179;-70
2023/03/10 06:04:55;;;;;;;15.50;12.90;;;;;;;;;;5055923;28;20426;-70
2023/03/10 06:07:20;;;;;;;14.87;12.80;;;;;;;;;;5053260;28;20187;-70
2023/03/10 06:09:45;;;;;;;18.63;14.43;;;;;;;;;;5055476;28;20680;-71
2023/03/10 06:12:11;;;;;;;16.20;13.67;;;;;;;;;;5056056;28;20180;-71
2023/03/10 06:14:38;;;;;;;16.40;13.57;;;;;;;;;;5052343;28;20185;-71
2023/03/10 06:17:03;;;;;;;18.60;14.50;;;;;;;;;;5043968;28;20175;-71
2023/03/10 06:19:29;;;;;;;15.63;13.37;;;;;;;;;;5040464;28;20849;-70
2023/03/10 06:21:54;;;;;;;16.63;14.83;;;;;;;;;;5038629;28;20168;-71
2023/03/10 06:24:19;;;;;;;19.23;14.60;;;;;;;;;;5045123;28;20175;-70
2023/03/10 06:26:45;;;;;;;19.17;15.53;;;;;;;;;;5033745;28;20191;-70
2023/03/10 06:29:10;;;;;;;18.23;15.20;;;;;;;;;;5028892;28;23473;-71
2023/03/10 06:31:35;;;;;;;16.43;14.33;;;;;;;;;;5040392;28;21087;-70
2023/03/10 06:34:01;;;;;;;17.67;15.13;;;;;;;;;;5047181;28;20223;-72
2023/03/10 06:36:27;;;;;;;18.83;15.10;;;;;;;;;;5046422;28;20202;-70
2023/03/10 06:38:52;;;;;;;19.93;15.67;;;;;;;;;;5048166;28;20410;-70
2023/03/10 06:41:19;;;;;;;20.07;15.23;;;;;;;;;;5049149;28;20493;-71
2023/03/10 06:43:44;;;;;;;22.13;16.83;;;;;;;;;;5047561;28;20178;-70
2023/03/10 06:46:10;;;;;;;18.13;15.20;;;;;;;;;;5050056;28;20467;-70
2023/03/10 06:48:36;;;;;;;18.53;15.30;;;;;;;;;;5048654;28;20176;-70
2023/03/10 06:51:03;;;;;;;18.60;16.30;;;;;;;;;;5036771;28;20276;-70
2023/03/10 06:53:29;;;;;;;20.03;17.07;;;;;;;;;;5051678;28;20176;-71
2023/03/10 06:55:59;;;;;;;19.97;16.47;;;;;;;;;;5054426;28;20441;-70
2023/03/10 06:58:24;;;;;;;21.50;16.97;;;;;;;;;;5048489;28;20191;-70
2023/03/10 07:00:49;;;;;;;18.60;16.20;;;;;;;;;;5056740;28;20803;-71
2023/03/10 07:03:15;;;;;;;19.50;16.90;;;;;;;;;;5055170;28;20177;-70
2023/03/10 07:05:40;;;;;;;24.17;18.23;;;;;;;;;;5056021;28;20191;-71
2023/03/10 07:08:05;;;;;;;22.67;16.90;;;;;;;;;;5057056;28;20178;-71
2023/03/10 07:10:30;;;;;;;18.97;16.20;;;;;;;;;;5061189;28;20531;-70
2023/03/10 07:12:57;;;;;;;17.93;15.97;;;;;;;;;;5054294;28;20189;-71
2023/03/10 07:15:23;;;;;;;17.83;14.80;;;;;;;;;;5060683;28;20222;-71
2023/03/10 07:17:48;;;;;;;19.83;15.40;;;;;;;;;;5053300;28;20904;-70
2023/03/10 07:20:14;;;;;;;19.67;15.70;;;;;;;;;;5054589;28;20474;-71
2023/03/10 07:22:39;;;;;;;19.63;16.57;;;;;;;;;;5056928;28;20174;-70
2023/03/10 07:25:06;;;;;;;22.97;17.47;;;;;;;;;;5055141;28;20198;-71
2023/03/10 07:27:31;;;;;;;18.40;16.13;;;;;;;;;;5057645;28;20524;-71
2023/03/10 07:29:56;;;;;;;19.70;17.20;;;;;;;;;;5056080;28;20477;-71
2023/03/10 07:32:22;;;;;;;20.60;17.13;;;;;;;;;;5059559;28;20197;-71
2023/03/10 07:34:49;;;;;;;19.23;17.10;;;;;;;;;;5051606;28;20190;-71
2023/03/10 07:37:14;;;;;;;18.57;16.33;;;;;;;;;;5057762;28;20312;-70
2023/03/10 07:39:40;;;;;;;20.30;17.03;;;;;;;;;;5057135;28;21026;-71
2023/03/10 07:42:05;;;;;;;21.53;17.20;;;;;;;;;;5054754;28;20183;-71
2023/03/10 07:44:30;;;;;;;21.17;17.63;;;;;;;;;;5058732;28;20555;-71
2023/03/10 07:46:56;;;;;;;20.67;17.47;;;;;;;;;;5059183;28;20210;-71
2023/03/10 07:49:21;;;;;;;21.20;17.27;;;;;;;;;;5044188;28;20230;-71
2023/03/10 07:51:46;;;;;;;20.50;17.20;;;;;;;;;;5055842;28;20660;-71
2023/03/10 07:54:12;;;;;;;22.67;18.67;;;;;;;;;;5057714;28;20183;-71
2023/03/10 07:56:37;;;;;;;22.17;17.80;;;;;;;;;;5058385;28;20245;-71
2023/03/10 07:59:03;;;;;;;22.80;17.37;;;;;;;;;;5053869;28;20659;-70
2023/03/10 08:01:28;;;;;;;21.97;17.40;;;;;;;;;;5055379;28;20159;-70
2023/03/10 08:03:53;;;;;;;22.27;17.83;;;;;;;;;;5049644;28;20590;-71
2023/03/10 08:06:20;;;;;;;19.80;17.17;;;;;;;;;;5054571;28;20203;-69
2023/03/10 08:08:46;;;;;;;19.90;16.13;;;;;;;;;;5055529;28;20179;-69
2023/03/10 08:11:11;;;;;;;21.97;17.30;;;;;;;;;;5058460;28;20929;-69
2023/03/10 08:13:37;;;;;;;20.27;18.00;;;;;;;;;;5057726;28;20175;-70
2023/03/10 08:16:02;;;;;;;20.23;17.67;;;;;;;;;;5056641;28;20202;-69
2023/03/10 08:18:28;;;;;;;19.83;16.20;;;;;;;;;;5043966;28;20642;-69
2023/03/10 08:20:54;;;;;;;20.73;17.10;;;;;;;;;;5058768;28;20254;-69
2023/03/10 08:23:20;;;;;;;23.03;17.60;;;;;;;;;;5043858;28;20522;-69
2023/03/10 08:25:45;;;;;;;20.17;17.80;;;;;;;;;;5053842;28;20194;-69
2023/03/10 08:28:10;;;;;;;19.77;16.03;;;;;;;;;;5047303;28;20178;-69
2023/03/10 08:30:37;;;;;;;28.83;20.57;;;;;;;;;;5054537;28;20180;-69
2023/03/10 08:33:02;;;;;;;30.17;23.77;;;;;;;;;;5052865;28;20889;-69
2023/03/10 08:35:27;;;;;;;24.97;19.67;;;;;;;;;;5056138;28;20429;-69
2023/03/10 08:37:52;;;;;;;21.57;18.03;;;;;;;;;;5052552;28;20734;-68
2023/03/10 08:40:18;;;;;;;19.53;16.13;;;;;;;;;;5058071;28;20290;-69
2023/03/10 08:42:43;;;;;;;18.23;15.97;;;;;;;;;;5058225;28;20254;-69
2023/03/10 08:45:10;;;;;;;19.57;16.57;;;;;;;;;;5059635;28;20211;-69
2023/03/10 08:47:35;;;;;;;18.00;16.10;;;;;;;;;;5056370;28;20172;-71
2023/03/10 08:50:01;;;;;;;17.00;15.20;;;;;;;;;;5050704;28;20429;-68
2023/03/10 08:52:26;;;;;;;19.80;16.13;;;;;;;;;;5053648;28;20183;-69
2023/03/10 08:54:51;;;;;;;19.83;17.67;;;;;;;;;;5055058;28;20564;-69
2023/03/10 08:57:17;;;;;;;17.97;15.87;;;;;;;;;;5048866;28;20183;-69
2023/03/10 08:59:42;;;;;;;19.37;17.17;;;;;;;;;;5053168;28;20200;-69
2023/03/10 09:02:14;;;;;;;18.87;16.87;;;;;;;;;;5051959;28;20179;-69
2023/03/10 09:04:39;;;;;;;18.93;15.90;;;;;;;;;;5054888;28;20176;-69
2023/03/10 09:07:05;;;;;;;17.37;15.53;;;;;;;;;;5047989;28;20453;-69
2023/03/10 09:09:30;;;;;;;19.30;16.10;;;;;;;;;;5049563;28;20882;-69
2023/03/10 09:11:55;;;;;;;17.07;15.27;;;;;;;;;;5054821;28;20200;-69
2023/03/10 09:14:20;;;;;;;17.03;15.03;;;;;;;;;;5057034;28;20553;-69
2023/03/10 09:16:46;;;;;;;18.90;14.87;;;;;;;;;;5051966;28;20282;-69
2023/03/10 09:19:11;;;;;;;18.07;14.70;;;;;;;;;;5047702;28;20218;-69
2023/03/10 09:21:36;;;;;;;18.23;15.07;;;;;;;;;;5055911;28;20168;-69
2023/03/10 09:24:02;;;;;;;15.97;14.27;;;;;;;;;;5055296;28;20180;-69
2023/03/10 09:26:27;;;;;;;17.43;14.67;;;;;;;;;;5057668;28;20273;-69
2023/03/10 09:28:53;;;;;;;16.20;14.03;;;;;;;;;;5056094;28;20665;-69
2023/03/10 09:31:20;;;;;;;18.23;15.70;;;;;;;;;;5058588;28;20171;-69
2023/03/10 09:33:46;;;;;;;18.60;15.30;;;;;;;;;;5054514;28;20555;-69
2023/03/10 09:36:11;;;;;;;15.80;14.10;;;;;;;;;;5055137;28;20457;-69
2023/03/10 09:38:36;;;;;;;17.60;14.40;;;;;;;;;;5051592;28;20233;-69
2023/03/10 09:41:20;;;;;;;15.33;12.97;;;;;;;;;;5056923;28;20296;-69
2023/03/10 09:43:54;;;;;;;15.37;13.73;;;;;;;;;;5057364;28;20176;-70
2023/03/10 09:46:32;;;;;;;15.40;13.80;;;;;;;;;;5057455;28;20582;-69
2023/03/10 09:49:08;;;;;;;16.17;14.47;;;;;;;;;;5053963;28;20401;-69
2023/03/10 09:51:34;;;;;;;16.67;14.50;;;;;;;;;;5057119;28;20418;-69
2023/03/10 09:54:12;;;;;;;16.00;13.53;;;;;;;;;;5053943;28;20592;-70
2023/03/10 09:56:37;;;;;;;16.57;13.93;;;;;;;;;;5056375;28;20438;-69
2023/03/10 09:59:21;;;;;;;16.20;13.67;;;;;;;;;;5055594;28;20457;-69
2023/03/10 10:01:48;;;;;;;15.13;13.43;;;;;;;;;;5055193;28;20167;-70
2023/03/10 10:04:20;;;;;;;14.70;12.90;;;;;;;;;;5050442;28;20429;-69
2023/03/10 10:06:46;;;;;;;14.83;13.33;;;;;;;;;;5053094;28;20433;-70
2023/03/10 10:09:33;;;;;;;14.80;13.20;;;;;;;;;;5051007;28;20426;-69
2023/03/10 10:12:08;;;;;;;14.57;12.40;;;;;;;;;;5055472;28;20451;-70
2023/03/10 10:14:33;;;;;;;14.53;12.97;;;;;;;;;;5052632;28;20471;-70
2023/03/10 10:17:17;;;;;;;14.50;12.40;;;;;;;;;;5054501;28;20838;-69
2023/03/10 10:19:44;;;;;;;14.17;12.63;;;;;;;;;;5052392;28;20268;-69
2023/03/10 10:22:19;;;;;;;16.00;13.10;;;;;;;;;;5055374;28;20634;-69
2023/03/10 10:25:03;;;;;;;15.63;13.43;;;;;;;;;;5042539;28;20425;-70
2023/03/10 10:27:29;;;;;;;14.00;12.07;;;;;;;;;;5054730;28;20406;-69
2023/03/10 10:29:55;;;;;;;14.60;13.00;;;;;;;;;;5057606;28;20466;-69
2023/03/10 10:32:20;;;;;;;15.67;13.57;;;;;;;;;;5054436;28;20452;-70
2023/03/10 10:34:45;;;;;;;16.20;14.33;;;;;;;;;;5053494;28;20204;-69
2023/03/10 10:37:23;;;;;;;13.30;12.00;;;;;;;;;;5057812;28;20530;-69
2023/03/10 10:39:50;;;;;;;14.63;13.13;;;;;;;;;;5058228;28;20589;-69
2023/03/10 10:42:18;;;;;;;15.13;13.53;;;;;;;;;;5046648;22;20562;-69
2023/03/10 10:44:44;;;;;;;15.10;13.37;;;;;;;;;;5020050;28;20929;-69
2023/03/10 10:47:22;;;;;;;16.30;14.30;;;;;;;;;;5025507;28;20489;-69
2023/03/10 10:49:47;;;;;;;16.90;13.63;;;;;;;;;;5043697;28;20192;-69
2023/03/10 10:52:20;;;;;;;15.93;13.50;;;;;;;;;;5031108;28;20450;-69
2023/03/10 10:54:52;;;;;;;17.80;15.10;;;;;;;;;;5030580;28;20181;-69
2023/03/10 10:57:23;;;;;;;16.73;14.20;;;;;;;;;;5036942;28;20468;-69
2023/03/10 10:59:48;;;;;;;17.53;15.63;;;;;;;;;;5027429;28;21031;-69
2023/03/10 11:02:21;;;;;;;19.67;14.23;;;;;;;;;;5029503;28;20459;-69
2023/03/10 11:04:47;;;;;;;15.50;13.30;;;;;;;;;;5028897;28;20184;-69
2023/03/10 11:07:22;;;;;;;16.80;14.57;;;;;;;;;;5029828;28;20407;-69
2023/03/10 11:09:48;;;;;;;16.17;14.40;;;;;;;;;;5030157;28;20647;-69
2023/03/10 11:12:28;;;;;;;17.40;14.40;;;;;;;;;;5029732;28;20441;-69
2023/03/10 11:15:00;;;;;;;17.93;14.50;;;;;;;;;;5030426;28;20229;-69
2023/03/10 11:17:30;;;;;;;16.60;14.60;;;;;;;;;;5025632;28;20710;-69
2023/03/10 11:20:07;;;;;;;19.67;16.30;;;;;;;;;;5024007;28;20462;-70
2023/03/10 11:22:38;;;;;;;17.17;14.97;;;;;;;;;;5029432;28;20440;-69
2023/03/10 11:25:04;;;;;;;21.60;17.40;;;;;;;;;;5025176;28;20845;-69
2023/03/10 11:27:41;;;;;;;20.53;16.27;;;;;;;;;;5024807;28;20455;-69
2023/03/10 11:30:13;;;;;;;19.50;15.57;;;;;;;;;;5029085;28;20180;-69
2023/03/10 11:33:01;;;;;;;17.77;14.77;;;;;;;;;;5029124;28;20502;-69
2023/03/10 11:35:30;;;;;;;18.20;14.40;;;;;;;;;;5029167;28;20427;-69
2023/03/10 11:38:01;;;;;;;15.23;13.50;;;;;;;;;;5023421;28;20493;-69
2023/03/10 11:40:34;;;;;;;16.10;14.17;;;;;;;;;;5028774;28;20459;-69
2023/03/10 11:43:11;;;;;;;15.17;12.97;;;;;;;;;;5026258;28;20458;-69
2023/03/10 11:45:38;;;;;;;15.30;13.70;;;;;;;;;;5030266;28;20425;-69
2023/03/10 11:48:19;;;;;;;14.50;13.00;;;;;;;;;;5028597;28;20404;-69
2023/03/10 11:50:58;;;;;;;17.27;13.97;;;;;;;;;;5026895;28;20458;-69
2023/03/10 11:53:29;;;;;;;14.83;13.23;;;;;;;;;;5025915;28;20407;-69
2023/03/10 11:55:54;;;;;;;15.83;13.03;;;;;;;;;;5027716;28;20829;-69
2023/03/10 11:58:22;;;;;;;15.17;13.17;;;;;;;;;;5027035;28;20411;-69
2023/03/10 12:00:51;;;;;;;15.37;12.40;;;;;;;;;;5021137;28;20185;-69
2023/03/10 12:03:35;;;;;;;15.17;13.57;;;;;;;;;;5029984;28;20422;-69
2023/03/10 12:06:01;;;;;;;18.37;12.60;;;;;;;;;;5030367;28;20414;-70
2023/03/10 12:08:35;;;;;;;13.90;12.20;;;;;;;;;;5020655;28;20457;-70
2023/03/10 12:11:02;;;;;;;14.00;12.33;;;;;;;;;;5019327;28;20542;-68
2023/03/10 12:13:54;;;;;;;14.00;12.20;;;;;;;;;;5026086;28;21297;-71
2023/03/10 12:16:21;;;;;;;12.47;11.17;;;;;;;;;;5027002;28;20482;-68
2023/03/10 12:18:46;;;;;;;11.97;10.70;;;;;;;;;;5024198;28;20526;-68
2023/03/10 12:21:13;;;;;;;13.50;11.77;;;;;;;;;;5026930;28;20809;-68
2023/03/10 12:23:39;;;;;;;12.40;11.10;;;;;;;;;;5028118;28;20241;-68
2023/03/10 12:26:05;;;;;;;12.53;11.23;;;;;;;;;;5027012;28;20422;-68
2023/03/10 12:28:32;;;;;;;13.60;12.10;;;;;;;;;;5027798;28;20423;-68
2023/03/10 12:31:03;;;;;;;13.23;11.87;;;;;;;;;;5029061;28;20745;-68
2023/03/10 12:33:38;;;;;;;12.80;10.97;;;;;;;;;;5029044;28;20411;-68
2023/03/10 12:36:14;;;;;;;11.80;10.33;;;;;;;;;;5029082;28;20472;-69
2023/03/10 12:38:41;;;;;;;12.60;11.27;;;;;;;;;;5026768;28;20435;-69
2023/03/10 12:41:07;;;;;;;11.93;10.63;;;;;;;;;;5028663;28;20439;-68
2023/03/10 12:43:38;;;;;;;13.53;11.20;;;;;;;;;;5029298;28;20422;-68
2023/03/10 12:46:06;;;;;;;11.93;10.63;;;;;;;;;;5029366;28;20797;-69
2023/03/10 12:48:33;;;;;;;12.63;11.37;;;;;;;;;;5028330;28;20415;-68
2023/03/10 12:51:03;;;;;;;12.50;11.20;;;;;;;;;;5028019;28;20527;-69
2023/03/10 12:53:31;;;;;;;11.90;10.70;;;;;;;;;;5028807;28;20826;-68
2023/03/10 12:56:12;;;;;;;11.90;10.70;;;;;;;;;;5025292;28;20511;-68
2023/03/10 12:58:39;;;;;;;12.57;11.27;;;;;;;;;;5027442;28;20505;-68
2023/03/10 13:01:06;;;;;;;12.00;10.80;;;;;;;;;;5028866;28;20803;-68
2023/03/10 13:03:34;;;;;;;11.13;10.03;;;;;;;;;;5018051;28;20450;-69
2023/03/10 13:06:02;;;;;;;11.83;10.63;;;;;;;;;;5027417;28;20419;-68
2023/03/10 13:08:46;;;;;;;12.50;11.20;;;;;;;;;;5025131;28;20462;-68
2023/03/10 13:11:11;;;;;;;12.00;10.80;;;;;;;;;;5028655;28;20435;-68
2023/03/10 13:13:36;;;;;;;11.83;10.57;;;;;;;;;;5026766;28;20502;-68
2023/03/10 13:16:03;;;;;;;12.87;10.07;;;;;;;;;;5028835;28;20266;-69
2023/03/10 13:18:29;;;;;;;11.07;9.97;;;;;;;;;;5026803;28;20173;-68
2023/03/10 13:20:54;;;;;;;12.30;10.13;;;;;;;;;;5027397;28;20441;-68
2023/03/10 13:23:28;;;;;;;11.77;10.57;;;;;;;;;;5028651;28;20183;-68
2023/03/10 13:26:02;;;;;;;11.57;10.37;;;;;;;;;;5019454;28;20176;-68
2023/03/10 13:28:29;;;;;;;11.67;10.50;;;;;;;;;;5025449;28;20454;-68
2023/03/10 13:31:15;;;;;;;10.80;9.70;;;;;;;;;;5027877;28;20502;-68
2023/03/10 13:33:43;;;;;;;11.13;9.93;;;;;;;;;;5028377;28;20505;-68
2023/03/10 13:36:24;;;;;;;12.43;10.40;;;;;;;;;;5026898;28;20811;-69
2023/03/10 13:38:51;;;;;;;10.77;9.47;;;;;;;;;;5018399;28;20592;-68
2023/03/10 13:41:16;;;;;;;11.40;10.30;;;;;;;;;;5025870;28;20459;-68
2023/03/10 13:43:42;;;;;;;13.20;10.90;;;;;;;;;;5025656;28;20419;-68
2023/03/10 13:46:18;;;;;;;12.03;10.80;;;;;;;;;;5027582;28;20171;-68
2023/03/10 13:48:44;;;;;;;11.13;9.93;;;;;;;;;;5026412;28;20451;-68
2023/03/10 13:51:16;;;;;;;12.83;11.40;;;;;;;;;;5027071;28;20435;-68
2023/03/10 13:53:41;;;;;;;10.50;9.47;;;;;;;;;;5027923;28;20414;-68
2023/03/10 13:56:17;;;;;;;10.17;9.17;;;;;;;;;;5027765;28;20414;-68
2023/03/10 13:58:43;;;;;;;10.60;9.50;;;;;;;;;;5026731;28;20176;-68
2023/03/10 14:01:14;;;;;;;9.77;8.77;;;;;;;;;;5024315;28;20992;-68
2023/03/10 14:03:47;;;;;;;11.20;10.00;;;;;;;;;;5030514;28;20426;-68
2023/03/10 14:06:13;;;;;;;12.57;10.80;;;;;;;;;;5029190;28;20956;-68
2023/03/10 14:08:38;;;;;;;11.50;10.07;;;;;;;;;;5030233;28;20435;-68
2023/03/10 14:11:21;;;;;;;11.50;10.30;;;;;;;;;;5034168;28;20199;-68
2023/03/10 14:13:46;;;;;;;11.43;10.33;;;;;;;;;;5026705;28;20624;-67
2023/03/10 14:16:12;;;;;;;11.40;10.30;;;;;;;;;;5033161;28;20442;-68
2023/03/10 14:18:39;;;;;;;12.27;10.27;;;;;;;;;;5023944;28;20222;-68